Forside
METAR-TAF:

METAR-TAF

Lufthavne :

Waterford, Irland

Breddekreds: 52-11-14N, længdekreds: 7-05-13W, højde: 36 m

Aktuelle vejr

Denne rapport blev lavet for 6 timer og 43 minutter siden, kl. 19:30 UTC
Vind 12 kt fra vestsydvest, varierende mellem sydvest og vest
Temperatur 12°C
Fugtighed 88%
Tryk 1033 hPa
Sigt 10 km eller mere
ingen skyer under 1500m og ingen cumulonimbus

METAR: EIWF 241930Z 25012KT 220V280 CAVOK 12/10 Q1033

Tid: 03:13 (02:13 UTC)

Vejrudsigter

Denne rapport blev lavet for 3 timer og 13 minutter siden, kl. 23:00 UTC
Foreløbig gælder fra 25 på 00 UTC til 25 på 09 UTC
Vind 10 kt fra vestsydvest
Sigt 10 km eller mere
Spredte skyer i en højde af 2500 ft
Midlertidig
fra 25 på 00 UTC til 25 på 09 UTC
Sigt: 3000 m
Brudte skyer i en højde af 400 ft
dis
Sandsynlighed 30% :
Midlertidig
fra 25 på 01 UTC til 25 på 07 UTC
Sigt: 0300 m
Brudte skyer i en højde af 100 ft
tåge

TAF: EIWF 242300Z 2500/2509 24010KT 9999 SCT025 TEMPO 2500/2509 3000 BR BKN004 PROB30 TEMPO 2501/2507 0300 FG BKN001

Vejrobservationer og prognoser fra mere end 4000 lufthavne (METAR og TAF).

De gule og røde prikker repræsenterer de meteorologiske stationer.

Flyt musen over at se navnet på stationen.

Så klik over at se vejr observationer og prognoser.

At skifte det kort: Klik på de grønne knapper med et sort kors for at zoome ind; på den grønne knap med en bindestreg for at zoome ud; eller på de grønne pile for tilstødende kort.


METAR-TAF: